sensor_id;sensor_type;location;lat;lon;timestamp;temperature;humidity
25482;DHT22;13395;50.752;4.268;2023-01-20T00:02:01;2.90;99.90
25482;DHT22;13395;50.752;4.268;2023-01-20T00:04:27;2.90;99.90
25482;DHT22;13395;50.752;4.268;2023-01-20T00:06:53;2.80;99.90
25482;DHT22;13395;50.752;4.268;2023-01-20T00:09:19;3.00;99.90
25482;DHT22;13395;50.752;4.268;2023-01-20T00:11:45;2.90;99.90
25482;DHT22;13395;50.752;4.268;2023-01-20T00:14:10;2.80;99.90
25482;DHT22;13395;50.752;4.268;2023-01-20T00:16:37;2.80;99.90
25482;DHT22;13395;50.752;4.268;2023-01-20T00:19:02;2.80;99.90
25482;DHT22;13395;50.752;4.268;2023-01-20T00:21:28;2.70;99.90
25482;DHT22;13395;50.752;4.268;2023-01-20T00:23:54;2.80;99.90
25482;DHT22;13395;50.752;4.268;2023-01-20T00:26:21;2.80;99.90
25482;DHT22;13395;50.752;4.268;2023-01-20T00:28:48;2.80;99.90
25482;DHT22;13395;50.752;4.268;2023-01-20T00:31:23;2.80;99.90
25482;DHT22;13395;50.752;4.268;2023-01-20T00:33:49;2.70;99.90
25482;DHT22;13395;50.752;4.268;2023-01-20T00:36:17;2.80;99.90
25482;DHT22;13395;50.752;4.268;2023-01-20T00:38:43;2.80;99.90
25482;DHT22;13395;50.752;4.268;2023-01-20T00:41:09;2.70;99.90
25482;DHT22;13395;50.752;4.268;2023-01-20T00:43:35;2.70;99.90
25482;DHT22;13395;50.752;4.268;2023-01-20T00:46:01;2.70;99.90
25482;DHT22;13395;50.752;4.268;2023-01-20T00:48:27;2.70;99.90
25482;DHT22;13395;50.752;4.268;2023-01-20T00:50:53;2.70;99.90
25482;DHT22;13395;50.752;4.268;2023-01-20T00:53:19;2.60;99.90
25482;DHT22;13395;50.752;4.268;2023-01-20T00:55:44;2.50;99.90
25482;DHT22;13395;50.752;4.268;2023-01-20T00:58:10;2.50;99.90
25482;DHT22;13395;50.752;4.268;2023-01-20T01:00:36;2.50;99.90
25482;DHT22;13395;50.752;4.268;2023-01-20T01:03:01;2.60;99.90
25482;DHT22;13395;50.752;4.268;2023-01-20T01:05:27;2.70;99.90
25482;DHT22;13395;50.752;4.268;2023-01-20T01:07:53;2.70;99.90
25482;DHT22;13395;50.752;4.268;2023-01-20T01:10:18;2.80;99.90
25482;DHT22;13395;50.752;4.268;2023-01-20T01:12:44;2.80;99.90
25482;DHT22;13395;50.752;4.268;2023-01-20T01:15:10;2.70;99.90
25482;DHT22;13395;50.752;4.268;2023-01-20T01:17:36;2.70;99.90
25482;DHT22;13395;50.752;4.268;2023-01-20T01:20:01;2.70;99.90
25482;DHT22;13395;50.752;4.268;2023-01-20T01:22:28;2.80;99.90
25482;DHT22;13395;50.752;4.268;2023-01-20T01:24:55;2.60;99.90
25482;DHT22;13395;50.752;4.268;2023-01-20T01:27:21;2.60;99.90
25482;DHT22;13395;50.752;4.268;2023-01-20T01:29:46;2.70;99.90
25482;DHT22;13395;50.752;4.268;2023-01-20T01:32:12;2.70;99.90
25482;DHT22;13395;50.752;4.268;2023-01-20T01:34:38;2.70;99.90
25482;DHT22;13395;50.752;4.268;2023-01-20T01:37:03;2.70;99.90
25482;DHT22;13395;50.752;4.268;2023-01-20T01:39:29;2.80;99.90
25482;DHT22;13395;50.752;4.268;2023-01-20T01:41:54;2.70;99.90
25482;DHT22;13395;50.752;4.268;2023-01-20T01:44:20;2.70;99.90
25482;DHT22;13395;50.752;4.268;2023-01-20T01:46:46;2.70;99.90
25482;DHT22;13395;50.752;4.268;2023-01-20T01:49:16;2.70;99.90
25482;DHT22;13395;50.752;4.268;2023-01-20T01:51:49;2.50;99.90
25482;DHT22;13395;50.752;4.268;2023-01-20T01:54:17;2.60;99.90
25482;DHT22;13395;50.752;4.268;2023-01-20T01:56:45;2.70;99.90
25482;DHT22;13395;50.752;4.268;2023-01-20T01:59:13;2.60;99.90
25482;DHT22;13395;50.752;4.268;2023-01-20T02:01:43;2.60;99.90
25482;DHT22;13395;50.752;4.268;2023-01-20T02:04:13;2.50;99.90
25482;DHT22;13395;50.752;4.268;2023-01-20T02:06:41;2.50;99.90
25482;DHT22;13395;50.752;4.268;2023-01-20T02:09:08;2.60;99.90
25482;DHT22;13395;50.752;4.268;2023-01-20T02:11:48;2.60;99.90
25482;DHT22;13395;50.752;4.268;2023-01-20T02:14:17;2.60;99.90
25482;DHT22;13395;50.752;4.268;2023-01-20T02:17:08;2.70;99.90
25482;DHT22;13395;50.752;4.268;2023-01-20T02:37:02;2.80;99.90
25482;DHT22;13395;50.752;4.268;2023-01-20T02:39:41;2.80;99.90
25482;DHT22;13395;50.752;4.268;2023-01-20T02:42:15;2.50;99.90
25482;DHT22;13395;50.752;4.268;2023-01-20T02:44:57;2.60;99.90
25482;DHT22;13395;50.752;4.268;2023-01-20T02:50:30;2.50;99.90
25482;DHT22;13395;50.752;4.268;2023-01-20T02:52:58;2.50;99.90
25482;DHT22;13395;50.752;4.268;2023-01-20T02:55:40;2.50;99.90
25482;DHT22;13395;50.752;4.268;2023-01-20T03:00:49;2.50;99.90
25482;DHT22;13395;50.752;4.268;2023-01-20T03:03:20;2.40;99.90
25482;DHT22;13395;50.752;4.268;2023-01-20T03:05:56;2.50;99.90
25482;DHT22;13395;50.752;4.268;2023-01-20T03:08:26;2.50;99.90
25482;DHT22;13395;50.752;4.268;2023-01-20T03:10:54;2.50;99.90
25482;DHT22;13395;50.752;4.268;2023-01-20T03:13:52;2.70;99.90
25482;DHT22;13395;50.752;4.268;2023-01-20T03:16:17;2.40;99.90
25482;DHT22;13395;50.752;4.268;2023-01-20T03:18:44;2.50;99.90
25482;DHT22;13395;50.752;4.268;2023-01-20T03:21:11;2.50;99.90
25482;DHT22;13395;50.752;4.268;2023-01-20T03:23:45;2.30;99.90
25482;DHT22;13395;50.752;4.268;2023-01-20T03:26:13;2.30;99.90
25482;DHT22;13395;50.752;4.268;2023-01-20T03:28:43;2.40;99.90
25482;DHT22;13395;50.752;4.268;2023-01-20T03:31:48;2.50;99.90
25482;DHT22;13395;50.752;4.268;2023-01-20T03:34:18;2.40;99.90
25482;DHT22;13395;50.752;4.268;2023-01-20T03:36:45;2.50;99.90
25482;DHT22;13395;50.752;4.268;2023-01-20T03:39:12;2.50;99.90
25482;DHT22;13395;50.752;4.268;2023-01-20T03:44:49;2.40;99.90
25482;DHT22;13395;50.752;4.268;2023-01-20T03:50:28;2.40;99.90
25482;DHT22;13395;50.752;4.268;2023-01-20T03:55:55;2.30;99.90
25482;DHT22;13395;50.752;4.268;2023-01-20T03:58:28;2.30;99.90
25482;DHT22;13395;50.752;4.268;2023-01-20T04:00:54;2.30;99.90
25482;DHT22;13395;50.752;4.268;2023-01-20T04:03:29;2.20;99.90
25482;DHT22;13395;50.752;4.268;2023-01-20T04:05:57;2.20;99.90
25482;DHT22;13395;50.752;4.268;2023-01-20T04:08:27;2.20;99.90
25482;DHT22;13395;50.752;4.268;2023-01-20T04:10:55;2.20;99.90
25482;DHT22;13395;50.752;4.268;2023-01-20T04:13:22;2.20;99.90
25482;DHT22;13395;50.752;4.268;2023-01-20T04:15:47;2.20;99.90
25482;DHT22;13395;50.752;4.268;2023-01-20T04:18:19;2.20;99.90
25482;DHT22;13395;50.752;4.268;2023-01-20T04:20:48;2.20;99.90
25482;DHT22;13395;50.752;4.268;2023-01-20T04:25:52;2.20;99.90
25482;DHT22;13395;50.752;4.268;2023-01-20T04:28:18;2.20;99.90
25482;DHT22;13395;50.752;4.268;2023-01-20T04:30:44;2.10;99.90
25482;DHT22;13395;50.752;4.268;2023-01-20T04:33:09;2.20;99.90
25482;DHT22;13395;50.752;4.268;2023-01-20T04:35:35;2.10;99.90
25482;DHT22;13395;50.752;4.268;2023-01-20T04:38:01;2.20;99.90
25482;DHT22;13395;50.752;4.268;2023-01-20T04:40:26;2.20;99.90
25482;DHT22;13395;50.752;4.268;2023-01-20T04:42:52;2.30;99.90
25482;DHT22;13395;50.752;4.268;2023-01-20T04:45:17;2.30;99.90
25482;DHT22;13395;50.752;4.268;2023-01-20T04:47:43;2.30;99.90
25482;DHT22;13395;50.752;4.268;2023-01-20T04:50:10;2.40;99.90
25482;DHT22;13395;50.752;4.268;2023-01-20T04:52:36;2.40;99.90
25482;DHT22;13395;50.752;4.268;2023-01-20T04:55:02;2.50;99.90
25482;DHT22;13395;50.752;4.268;2023-01-20T04:57:28;2.40;99.90
25482;DHT22;13395;50.752;4.268;2023-01-20T04:59:53;2.50;99.90
25482;DHT22;13395;50.752;4.268;2023-01-20T05:02:19;2.50;99.90
25482;DHT22;13395;50.752;4.268;2023-01-20T05:04:44;2.50;99.90
25482;DHT22;13395;50.752;4.268;2023-01-20T05:07:10;2.40;99.90
25482;DHT22;13395;50.752;4.268;2023-01-20T05:09:36;2.30;99.90
25482;DHT22;13395;50.752;4.268;2023-01-20T05:12:02;2.30;99.90
25482;DHT22;13395;50.752;4.268;2023-01-20T05:14:27;2.40;99.90
25482;DHT22;13395;50.752;4.268;2023-01-20T05:16:53;2.40;99.90
25482;DHT22;13395;50.752;4.268;2023-01-20T05:19:19;2.20;99.90
25482;DHT22;13395;50.752;4.268;2023-01-20T05:21:44;2.30;99.90
25482;DHT22;13395;50.752;4.268;2023-01-20T05:24:10;2.20;99.90
25482;DHT22;13395;50.752;4.268;2023-01-20T05:26:36;2.30;99.90
25482;DHT22;13395;50.752;4.268;2023-01-20T05:29:02;2.20;99.90
25482;DHT22;13395;50.752;4.268;2023-01-20T05:31:27;2.20;99.90
25482;DHT22;13395;50.752;4.268;2023-01-20T05:33:53;2.20;99.90
25482;DHT22;13395;50.752;4.268;2023-01-20T05:36:19;2.30;99.90
25482;DHT22;13395;50.752;4.268;2023-01-20T05:38:45;2.30;99.90
25482;DHT22;13395;50.752;4.268;2023-01-20T05:41:10;2.30;99.90
25482;DHT22;13395;50.752;4.268;2023-01-20T05:43:36;2.30;99.90
25482;DHT22;13395;50.752;4.268;2023-01-20T05:46:02;2.30;99.90
25482;DHT22;13395;50.752;4.268;2023-01-20T05:48:28;2.20;99.90
25482;DHT22;13395;50.752;4.268;2023-01-20T05:50:54;2.10;99.90
25482;DHT22;13395;50.752;4.268;2023-01-20T05:53:20;2.00;99.90
25482;DHT22;13395;50.752;4.268;2023-01-20T05:55:45;2.10;99.90
25482;DHT22;13395;50.752;4.268;2023-01-20T05:58:11;2.20;99.90
25482;DHT22;13395;50.752;4.268;2023-01-20T06:00:37;2.10;99.90
25482;DHT22;13395;50.752;4.268;2023-01-20T06:03:03;2.20;99.90
25482;DHT22;13395;50.752;4.268;2023-01-20T06:05:29;2.20;99.90
25482;DHT22;13395;50.752;4.268;2023-01-20T06:07:55;2.20;99.90
25482;DHT22;13395;50.752;4.268;2023-01-20T06:10:21;2.20;99.90
25482;DHT22;13395;50.752;4.268;2023-01-20T06:12:53;2.10;99.90
25482;DHT22;13395;50.752;4.268;2023-01-20T06:15:19;2.10;99.90
25482;DHT22;13395;50.752;4.268;2023-01-20T06:17:45;2.10;99.90
25482;DHT22;13395;50.752;4.268;2023-01-20T06:20:11;2.00;99.90
25482;DHT22;13395;50.752;4.268;2023-01-20T06:22:37;2.20;99.90
25482;DHT22;13395;50.752;4.268;2023-01-20T06:25:03;2.30;99.90
25482;DHT22;13395;50.752;4.268;2023-01-20T06:27:28;2.30;99.90
25482;DHT22;13395;50.752;4.268;2023-01-20T06:29:54;2.40;99.90
25482;DHT22;13395;50.752;4.268;2023-01-20T06:32:20;2.40;99.90
25482;DHT22;13395;50.752;4.268;2023-01-20T06:34:45;2.60;99.90
25482;DHT22;13395;50.752;4.268;2023-01-20T06:37:11;2.60;99.90
25482;DHT22;13395;50.752;4.268;2023-01-20T06:39:37;2.50;99.90
25482;DHT22;13395;50.752;4.268;2023-01-20T06:42:03;2.40;99.90
25482;DHT22;13395;50.752;4.268;2023-01-20T06:44:28;2.30;99.90
25482;DHT22;13395;50.752;4.268;2023-01-20T06:46:54;2.30;99.90
25482;DHT22;13395;50.752;4.268;2023-01-20T06:49:22;2.20;99.90
25482;DHT22;13395;50.752;4.268;2023-01-20T06:51:47;2.30;99.90
25482;DHT22;13395;50.752;4.268;2023-01-20T06:54:13;2.20;99.90
25482;DHT22;13395;50.752;4.268;2023-01-20T06:56:39;2.20;99.90
25482;DHT22;13395;50.752;4.268;2023-01-20T06:59:05;2.10;99.90
25482;DHT22;13395;50.752;4.268;2023-01-20T07:01:31;2.20;99.90
25482;DHT22;13395;50.752;4.268;2023-01-20T07:03:56;2.10;99.90
25482;DHT22;13395;50.752;4.268;2023-01-20T07:06:36;2.20;99.90
25482;DHT22;13395;50.752;4.268;2023-01-20T07:09:11;2.30;99.90
25482;DHT22;13395;50.752;4.268;2023-01-20T07:11:37;2.30;99.90
25482;DHT22;13395;50.752;4.268;2023-01-20T07:14:03;2.40;99.90
25482;DHT22;13395;50.752;4.268;2023-01-20T07:16:29;2.40;99.90
25482;DHT22;13395;50.752;4.268;2023-01-20T07:18:55;2.40;99.90
25482;DHT22;13395;50.752;4.268;2023-01-20T07:21:21;2.40;99.90
25482;DHT22;13395;50.752;4.268;2023-01-20T07:23:47;2.40;99.90
25482;DHT22;13395;50.752;4.268;2023-01-20T07:26:16;2.40;99.90
25482;DHT22;13395;50.752;4.268;2023-01-20T07:28:42;2.40;99.90
25482;DHT22;13395;50.752;4.268;2023-01-20T07:31:11;2.50;99.90
25482;DHT22;13395;50.752;4.268;2023-01-20T07:33:37;2.50;99.90
25482;DHT22;13395;50.752;4.268;2023-01-20T07:36:04;2.40;99.90
25482;DHT22;13395;50.752;4.268;2023-01-20T07:38:31;2.50;99.90
25482;DHT22;13395;50.752;4.268;2023-01-20T07:40:58;2.50;99.90
25482;DHT22;13395;50.752;4.268;2023-01-20T07:43:24;2.50;99.90
25482;DHT22;13395;50.752;4.268;2023-01-20T07:45:49;2.50;99.90
25482;DHT22;13395;50.752;4.268;2023-01-20T07:48:18;2.40;99.90
25482;DHT22;13395;50.752;4.268;2023-01-20T07:50:43;2.50;99.90
25482;DHT22;13395;50.752;4.268;2023-01-20T07:53:09;2.40;99.90
25482;DHT22;13395;50.752;4.268;2023-01-20T07:55:35;2.50;99.90
25482;DHT22;13395;50.752;4.268;2023-01-20T07:58:00;2.50;99.90
25482;DHT22;13395;50.752;4.268;2023-01-20T08:00:26;2.60;99.90
25482;DHT22;13395;50.752;4.268;2023-01-20T08:02:52;2.60;99.90
25482;DHT22;13395;50.752;4.268;2023-01-20T08:05:18;2.50;99.90
25482;DHT22;13395;50.752;4.268;2023-01-20T08:07:43;2.60;99.90
25482;DHT22;13395;50.752;4.268;2023-01-20T08:10:09;2.70;99.90
25482;DHT22;13395;50.752;4.268;2023-01-20T08:12:35;2.60;99.90
25482;DHT22;13395;50.752;4.268;2023-01-20T08:15:01;2.80;99.90
25482;DHT22;13395;50.752;4.268;2023-01-20T08:17:26;2.60;99.90
25482;DHT22;13395;50.752;4.268;2023-01-20T08:19:52;2.70;99.90
25482;DHT22;13395;50.752;4.268;2023-01-20T08:22:17;2.60;99.90
25482;DHT22;13395;50.752;4.268;2023-01-20T08:24:43;2.70;99.90
25482;DHT22;13395;50.752;4.268;2023-01-20T08:27:09;2.60;99.90
25482;DHT22;13395;50.752;4.268;2023-01-20T08:29:35;2.60;99.90
25482;DHT22;13395;50.752;4.268;2023-01-20T08:32:00;2.60;99.90
25482;DHT22;13395;50.752;4.268;2023-01-20T08:34:27;2.70;99.90
25482;DHT22;13395;50.752;4.268;2023-01-20T08:36:53;2.70;99.90
25482;DHT22;13395;50.752;4.268;2023-01-20T08:39:21;2.70;99.90
25482;DHT22;13395;50.752;4.268;2023-01-20T08:41:47;2.80;99.90
25482;DHT22;13395;50.752;4.268;2023-01-20T08:44:15;2.80;99.90
25482;DHT22;13395;50.752;4.268;2023-01-20T08:46:41;2.70;99.90
25482;DHT22;13395;50.752;4.268;2023-01-20T08:49:09;2.80;99.90
25482;DHT22;13395;50.752;4.268;2023-01-20T08:51:35;2.80;99.90
25482;DHT22;13395;50.752;4.268;2023-01-20T08:54:01;2.90;99.90
25482;DHT22;13395;50.752;4.268;2023-01-20T08:56:28;2.90;99.90
25482;DHT22;13395;50.752;4.268;2023-01-20T08:58:55;2.90;99.90
25482;DHT22;13395;50.752;4.268;2023-01-20T09:01:24;3.00;99.90
25482;DHT22;13395;50.752;4.268;2023-01-20T09:03:51;3.10;99.90
25482;DHT22;13395;50.752;4.268;2023-01-20T09:06:17;3.20;99.90
25482;DHT22;13395;50.752;4.268;2023-01-20T09:08:44;3.40;99.90
25482;DHT22;13395;50.752;4.268;2023-01-20T09:11:12;3.30;99.90
25482;DHT22;13395;50.752;4.268;2023-01-20T09:13:39;3.20;99.90
25482;DHT22;13395;50.752;4.268;2023-01-20T09:16:05;3.20;99.90
25482;DHT22;13395;50.752;4.268;2023-01-20T09:18:32;3.30;99.90
25482;DHT22;13395;50.752;4.268;2023-01-20T09:20:59;3.40;99.90
25482;DHT22;13395;50.752;4.268;2023-01-20T09:23:26;3.40;99.90
25482;DHT22;13395;50.752;4.268;2023-01-20T09:25:52;3.30;99.90
25482;DHT22;13395;50.752;4.268;2023-01-20T09:28:17;3.40;99.90
25482;DHT22;13395;50.752;4.268;2023-01-20T09:30:43;3.40;99.90
25482;DHT22;13395;50.752;4.268;2023-01-20T09:33:10;3.40;99.90
25482;DHT22;13395;50.752;4.268;2023-01-20T09:35:36;3.50;99.90
25482;DHT22;13395;50.752;4.268;2023-01-20T09:38:02;3.50;99.90
25482;DHT22;13395;50.752;4.268;2023-01-20T09:44:48;3.50;99.90
25482;DHT22;13395;50.752;4.268;2023-01-20T09:47:29;3.50;99.90
25482;DHT22;13395;50.752;4.268;2023-01-20T09:53:23;3.50;99.90
25482;DHT22;13395;50.752;4.268;2023-01-20T09:56:00;3.60;99.90
25482;DHT22;13395;50.752;4.268;2023-01-20T10:01:18;3.60;99.90
25482;DHT22;13395;50.752;4.268;2023-01-20T10:06:51;3.70;99.90
25482;DHT22;13395;50.752;4.268;2023-01-20T10:12:14;3.90;99.90
25482;DHT22;13395;50.752;4.268;2023-01-20T10:14:49;4.00;99.90
25482;DHT22;13395;50.752;4.268;2023-01-20T10:17:31;4.00;99.90
25482;DHT22;13395;50.752;4.268;2023-01-20T10:22:41;4.10;99.90
25482;DHT22;13395;50.752;4.268;2023-01-20T10:25:12;4.10;99.90
25482;DHT22;13395;50.752;4.268;2023-01-20T10:27:47;4.20;99.90
25482;DHT22;13395;50.752;4.268;2023-01-20T10:30:16;4.10;99.90
25482;DHT22;13395;50.752;4.268;2023-01-20T10:33:10;4.20;99.90
25482;DHT22;13395;50.752;4.268;2023-01-20T10:35:42;4.30;99.90
25482;DHT22;13395;50.752;4.268;2023-01-20T10:38:42;4.40;99.90
25482;DHT22;13395;50.752;4.268;2023-01-20T10:44:01;4.50;99.90
25482;DHT22;13395;50.752;4.268;2023-01-20T10:54:47;4.80;99.90
25482;DHT22;13395;50.752;4.268;2023-01-20T10:57:17;5.00;99.90
25482;DHT22;13395;50.752;4.268;2023-01-20T10:59:53;5.10;99.90
25482;DHT22;13395;50.752;4.268;2023-01-20T11:02:40;5.00;99.90
25482;DHT22;13395;50.752;4.268;2023-01-20T11:05:14;5.00;99.90
25482;DHT22;13395;50.752;4.268;2023-01-20T11:07:42;5.00;99.90
25482;DHT22;13395;50.752;4.268;2023-01-20T11:10:26;5.10;99.90
25482;DHT22;13395;50.752;4.268;2023-01-20T11:12:56;5.20;99.90
25482;DHT22;13395;50.752;4.268;2023-01-20T11:15:28;5.40;99.90
25482;DHT22;13395;50.752;4.268;2023-01-20T11:18:18;5.40;99.90
25482;DHT22;13395;50.752;4.268;2023-01-20T11:28:57;5.50;99.90
25482;DHT22;13395;50.752;4.268;2023-01-20T11:37:20;5.40;99.90
25482;DHT22;13395;50.752;4.268;2023-01-20T11:44:46;5.60;99.90
25482;DHT22;13395;50.752;4.268;2023-01-20T11:47:23;5.50;99.90
25482;DHT22;13395;50.752;4.268;2023-01-20T11:52:38;5.70;99.90
25482;DHT22;13395;50.752;4.268;2023-01-20T11:55:20;5.80;99.90
25482;DHT22;13395;50.752;4.268;2023-01-20T11:57:58;5.90;99.90
25482;DHT22;13395;50.752;4.268;2023-01-20T12:02:59;6.00;99.90
25482;DHT22;13395;50.752;4.268;2023-01-20T12:05:51;6.00;99.90
25482;DHT22;13395;50.752;4.268;2023-01-20T12:08:32;5.90;99.90
25482;DHT22;13395;50.752;4.268;2023-01-20T12:11:02;6.00;99.90
25482;DHT22;13395;50.752;4.268;2023-01-20T12:13:44;6.10;99.90
25482;DHT22;13395;50.752;4.268;2023-01-20T12:16:31;6.20;99.90
25482;DHT22;13395;50.752;4.268;2023-01-20T12:19:02;6.50;99.90
25482;DHT22;13395;50.752;4.268;2023-01-20T12:21:34;6.70;99.90
25482;DHT22;13395;50.752;4.268;2023-01-20T12:24:15;6.80;99.90
25482;DHT22;13395;50.752;4.268;2023-01-20T12:26:43;6.80;99.90
25482;DHT22;13395;50.752;4.268;2023-01-20T12:29:21;6.70;99.90
25482;DHT22;13395;50.752;4.268;2023-01-20T12:31:50;6.60;99.90
25482;DHT22;13395;50.752;4.268;2023-01-20T12:34:36;6.50;99.90
25482;DHT22;13395;50.752;4.268;2023-01-20T12:37:25;6.50;99.90
25482;DHT22;13395;50.752;4.268;2023-01-20T12:48:37;6.40;99.90
25482;DHT22;13395;50.752;4.268;2023-01-20T12:59:24;6.30;99.90
25482;DHT22;13395;50.752;4.268;2023-01-20T13:04:59;6.40;99.90
25482;DHT22;13395;50.752;4.268;2023-01-20T13:10:32;6.40;99.90
25482;DHT22;13395;50.752;4.268;2023-01-20T13:16:28;6.40;99.90
25482;DHT22;13395;50.752;4.268;2023-01-20T13:19:13;6.40;99.90
25482;DHT22;13395;50.752;4.268;2023-01-20T13:21:39;6.30;99.90
25482;DHT22;13395;50.752;4.268;2023-01-20T13:24:13;6.30;99.90
25482;DHT22;13395;50.752;4.268;2023-01-20T13:26:44;6.30;99.90
25482;DHT22;13395;50.752;4.268;2023-01-20T13:29:20;6.40;99.90
25482;DHT22;13395;50.752;4.268;2023-01-20T13:31:49;6.60;99.90
25482;DHT22;13395;50.752;4.268;2023-01-20T13:50:37;7.10;99.90
25482;DHT22;13395;50.752;4.268;2023-01-20T13:53:05;7.60;99.90
25482;DHT22;13395;50.752;4.268;2023-01-20T13:58:30;7.80;99.90
25482;DHT22;13395;50.752;4.268;2023-01-20T14:01:08;7.60;99.90
25482;DHT22;13395;50.752;4.268;2023-01-20T14:03:38;7.40;99.90
25482;DHT22;13395;50.752;4.268;2023-01-20T14:08:43;7.10;99.90
25482;DHT22;13395;50.752;4.268;2023-01-20T14:16:26;7.10;99.90
25482;DHT22;13395;50.752;4.268;2023-01-20T14:18:54;7.00;99.90
25482;DHT22;13395;50.752;4.268;2023-01-20T14:21:25;7.00;99.90
25482;DHT22;13395;50.752;4.268;2023-01-20T14:23:51;7.00;99.90
25482;DHT22;13395;50.752;4.268;2023-01-20T14:28:49;6.80;99.90
25482;DHT22;13395;50.752;4.268;2023-01-20T14:31:18;6.90;99.90
25482;DHT22;13395;50.752;4.268;2023-01-20T14:33:56;6.80;99.90
25482;DHT22;13395;50.752;4.268;2023-01-20T14:36:24;6.60;99.90
25482;DHT22;13395;50.752;4.268;2023-01-20T14:38:53;6.60;99.90
25482;DHT22;13395;50.752;4.268;2023-01-20T14:41:32;6.70;99.90
25482;DHT22;13395;50.752;4.268;2023-01-20T14:43:59;6.40;99.90
25482;DHT22;13395;50.752;4.268;2023-01-20T14:46:27;6.30;99.90
25482;DHT22;13395;50.752;4.268;2023-01-20T14:48:53;6.10;99.90
25482;DHT22;13395;50.752;4.268;2023-01-20T14:51:20;6.10;99.90
25482;DHT22;13395;50.752;4.268;2023-01-20T14:53:46;6.00;99.90
25482;DHT22;13395;50.752;4.268;2023-01-20T14:56:32;5.90;99.90
25482;DHT22;13395;50.752;4.268;2023-01-20T14:58:57;5.80;99.90
25482;DHT22;13395;50.752;4.268;2023-01-20T15:01:24;5.90;99.90
25482;DHT22;13395;50.752;4.268;2023-01-20T15:03:59;6.10;99.90
25482;DHT22;13395;50.752;4.268;2023-01-20T15:06:26;5.90;99.90
25482;DHT22;13395;50.752;4.268;2023-01-20T15:08:53;5.90;99.90
25482;DHT22;13395;50.752;4.268;2023-01-20T15:11:23;5.70;99.90
25482;DHT22;13395;50.752;4.268;2023-01-20T15:16:25;5.80;99.90
25482;DHT22;13395;50.752;4.268;2023-01-20T15:21:47;5.90;99.90
25482;DHT22;13395;50.752;4.268;2023-01-20T15:26:51;5.90;99.90
25482;DHT22;13395;50.752;4.268;2023-01-20T15:29:23;5.90;99.90
25482;DHT22;13395;50.752;4.268;2023-01-20T15:31:49;6.00;99.90
25482;DHT22;13395;50.752;4.268;2023-01-20T15:34:16;6.00;99.90
25482;DHT22;13395;50.752;4.268;2023-01-20T15:36:46;6.10;99.90
25482;DHT22;13395;50.752;4.268;2023-01-20T15:39:13;6.10;99.90
25482;DHT22;13395;50.752;4.268;2023-01-20T15:41:39;6.20;99.90
25482;DHT22;13395;50.752;4.268;2023-01-20T15:44:05;6.30;99.90
25482;DHT22;13395;50.752;4.268;2023-01-20T15:46:31;6.40;99.90
25482;DHT22;13395;50.752;4.268;2023-01-20T15:48:57;6.30;99.90
25482;DHT22;13395;50.752;4.268;2023-01-20T15:51:23;6.30;99.90
25482;DHT22;13395;50.752;4.268;2023-01-20T15:53:49;6.10;99.90
25482;DHT22;13395;50.752;4.268;2023-01-20T15:56:21;6.00;99.90
25482;DHT22;13395;50.752;4.268;2023-01-20T15:58:48;5.80;99.90
25482;DHT22;13395;50.752;4.268;2023-01-20T16:01:25;5.90;99.90
25482;DHT22;13395;50.752;4.268;2023-01-20T16:03:51;5.90;99.90
25482;DHT22;13395;50.752;4.268;2023-01-20T16:06:21;5.90;99.90
25482;DHT22;13395;50.752;4.268;2023-01-20T16:08:48;5.90;99.90
25482;DHT22;13395;50.752;4.268;2023-01-20T16:11:16;5.90;99.90
25482;DHT22;13395;50.752;4.268;2023-01-20T16:13:43;5.90;99.90
25482;DHT22;13395;50.752;4.268;2023-01-20T16:16:19;5.80;99.90
25482;DHT22;13395;50.752;4.268;2023-01-20T16:18:46;5.80;99.90
25482;DHT22;13395;50.752;4.268;2023-01-20T16:21:14;5.70;99.90
25482;DHT22;13395;50.752;4.268;2023-01-20T16:23:40;5.70;99.90
25482;DHT22;13395;50.752;4.268;2023-01-20T16:26:19;5.80;99.90
25482;DHT22;13395;50.752;4.268;2023-01-20T16:28:47;5.80;99.90
25482;DHT22;13395;50.752;4.268;2023-01-20T16:31:13;5.80;99.90
25482;DHT22;13395;50.752;4.268;2023-01-20T16:33:38;5.80;99.90
25482;DHT22;13395;50.752;4.268;2023-01-20T16:36:09;5.80;99.90
25482;DHT22;13395;50.752;4.268;2023-01-20T16:38:35;5.80;99.90
25482;DHT22;13395;50.752;4.268;2023-01-20T16:41:04;5.90;99.90
25482;DHT22;13395;50.752;4.268;2023-01-20T16:43:30;5.90;99.90
25482;DHT22;13395;50.752;4.268;2023-01-20T16:45:56;5.90;99.90
25482;DHT22;13395;50.752;4.268;2023-01-20T16:48:23;5.90;99.90
25482;DHT22;13395;50.752;4.268;2023-01-20T16:50:49;5.80;99.90
25482;DHT22;13395;50.752;4.268;2023-01-20T16:53:17;5.90;99.90
25482;DHT22;13395;50.752;4.268;2023-01-20T16:55:44;5.80;99.90
25482;DHT22;13395;50.752;4.268;2023-01-20T16:58:11;5.80;99.90
25482;DHT22;13395;50.752;4.268;2023-01-20T17:00:37;5.70;99.90
25482;DHT22;13395;50.752;4.268;2023-01-20T17:03:03;5.70;99.90
25482;DHT22;13395;50.752;4.268;2023-01-20T17:05:28;5.60;99.90
25482;DHT22;13395;50.752;4.268;2023-01-20T17:07:54;5.60;99.90
25482;DHT22;13395;50.752;4.268;2023-01-20T17:10:22;5.70;99.90
25482;DHT22;13395;50.752;4.268;2023-01-20T17:12:50;5.40;99.90
25482;DHT22;13395;50.752;4.268;2023-01-20T17:15:16;5.50;99.90
25482;DHT22;13395;50.752;4.268;2023-01-20T17:17:42;5.50;99.90
25482;DHT22;13395;50.752;4.268;2023-01-20T17:20:11;5.60;99.90
25482;DHT22;13395;50.752;4.268;2023-01-20T17:22:40;5.60;99.90
25482;DHT22;13395;50.752;4.268;2023-01-20T17:25:07;5.70;99.90
25482;DHT22;13395;50.752;4.268;2023-01-20T17:27:35;5.70;99.90
25482;DHT22;13395;50.752;4.268;2023-01-20T17:30:00;5.70;99.90
25482;DHT22;13395;50.752;4.268;2023-01-20T17:32:26;5.60;99.90
25482;DHT22;13395;50.752;4.268;2023-01-20T17:34:52;5.80;99.90
25482;DHT22;13395;50.752;4.268;2023-01-20T17:37:18;5.90;99.90
25482;DHT22;13395;50.752;4.268;2023-01-20T17:39:43;5.80;99.90
25482;DHT22;13395;50.752;4.268;2023-01-20T17:42:10;5.90;99.90
25482;DHT22;13395;50.752;4.268;2023-01-20T17:44:36;5.90;99.90
25482;DHT22;13395;50.752;4.268;2023-01-20T17:47:03;5.90;99.90
25482;DHT22;13395;50.752;4.268;2023-01-20T17:49:29;5.90;99.90
25482;DHT22;13395;50.752;4.268;2023-01-20T17:51:55;5.80;99.90
25482;DHT22;13395;50.752;4.268;2023-01-20T17:54:21;5.80;99.90
25482;DHT22;13395;50.752;4.268;2023-01-20T17:56:46;5.90;99.90
25482;DHT22;13395;50.752;4.268;2023-01-20T17:59:13;5.80;99.90
25482;DHT22;13395;50.752;4.268;2023-01-20T18:01:38;5.80;99.90
25482;DHT22;13395;50.752;4.268;2023-01-20T18:04:04;5.80;99.90
25482;DHT22;13395;50.752;4.268;2023-01-20T18:06:31;5.80;99.90
25482;DHT22;13395;50.752;4.268;2023-01-20T18:08:59;5.80;99.90
25482;DHT22;13395;50.752;4.268;2023-01-20T18:11:28;5.70;99.90
25482;DHT22;13395;50.752;4.268;2023-01-20T18:13:55;5.70;99.90
25482;DHT22;13395;50.752;4.268;2023-01-20T18:16:25;5.80;99.90
25482;DHT22;13395;50.752;4.268;2023-01-20T18:18:51;5.80;99.90
25482;DHT22;13395;50.752;4.268;2023-01-20T18:21:22;5.90;99.90
25482;DHT22;13395;50.752;4.268;2023-01-20T18:23:49;5.80;99.90
25482;DHT22;13395;50.752;4.268;2023-01-20T18:26:20;5.80;99.90
25482;DHT22;13395;50.752;4.268;2023-01-20T18:28:46;5.80;99.90